createdAt,value
2023-03-06T00:01:06.685Z,55.42
2023-03-06T00:03:08.702Z,55.80
2023-03-06T00:05:10.803Z,55.59
2023-03-06T00:07:12.966Z,55.60
2023-03-06T00:09:15.031Z,55.33
2023-03-06T00:11:17.560Z,55.82
2023-03-06T00:13:21.938Z,55.93
2023-03-06T00:15:25.214Z,55.72
2023-03-06T00:17:28.823Z,55.84
2023-03-06T00:19:30.898Z,55.65
2023-03-06T00:21:32.894Z,55.61
2023-03-06T00:23:35.115Z,55.84
2023-03-06T00:25:38.960Z,55.98
2023-03-06T00:27:41.549Z,55.90
2023-03-06T00:29:43.627Z,56.19
2023-03-06T00:31:48.033Z,55.98
2023-03-06T00:33:50.118Z,56.22
2023-03-06T00:35:52.228Z,56.32
2023-03-06T00:37:54.224Z,56.27
2023-03-06T00:39:56.336Z,56.21
2023-03-06T00:41:58.444Z,56.69
2023-03-06T00:44:00.523Z,56.53
2023-03-06T00:46:02.836Z,56.42
2023-03-06T00:48:05.595Z,56.17
2023-03-06T00:50:08.826Z,56.24
2023-03-06T00:52:11.413Z,56.47
2023-03-06T00:54:13.407Z,56.70
2023-03-06T00:56:15.541Z,56.26
2023-03-06T00:58:19.100Z,56.41
2023-03-06T01:00:21.384Z,56.42
2023-03-06T01:02:23.522Z,56.25
2023-03-06T01:04:25.860Z,56.43
2023-03-06T01:06:27.891Z,56.34
2023-03-06T01:08:29.935Z,56.73
2023-03-06T01:10:31.943Z,56.65
2023-03-06T01:12:33.908Z,56.69
2023-03-06T01:14:35.962Z,56.32
2023-03-06T01:16:38.051Z,56.62
2023-03-06T01:18:40.166Z,56.67
2023-03-06T01:20:42.321Z,56.53
2023-03-06T01:22:45.150Z,56.77
2023-03-06T01:24:47.152Z,56.99
2023-03-06T01:26:49.156Z,56.53
2023-03-06T01:28:51.198Z,57.11
2023-03-06T01:30:53.443Z,57.06
2023-03-06T01:32:55.407Z,57.26
2023-03-06T01:34:57.622Z,57.25
2023-03-06T01:36:59.678Z,57.10
2023-03-06T01:39:01.687Z,57.31
2023-03-06T01:41:05.864Z,57.35
2023-03-06T01:43:11.619Z,57.44
2023-03-06T01:45:14.300Z,57.12
2023-03-06T01:47:16.235Z,57.15
2023-03-06T01:49:24.813Z,57.09
2023-03-06T01:51:32.464Z,57.49
2023-03-06T01:53:34.444Z,57.69
2023-03-06T01:55:37.179Z,57.57
2023-03-06T01:57:44.365Z,57.42
2023-03-06T01:59:53.179Z,57.27
2023-03-06T02:01:56.430Z,57.38
2023-03-06T02:04:00.970Z,57.52
2023-03-06T02:06:03.003Z,57.27
2023-03-06T02:08:06.956Z,57.50
2023-03-06T02:10:10.392Z,57.25
2023-03-06T02:12:16.706Z,57.37
2023-03-06T02:14:18.869Z,57.10
2023-03-06T02:16:27.991Z,57.19
2023-03-06T02:18:33.049Z,57.17
2023-03-06T02:20:43.852Z,57.32
2023-03-06T02:22:46.046Z,57.27
2023-03-06T02:24:56.962Z,57.27
2023-03-06T02:26:59.881Z,57.61
2023-03-06T02:29:02.174Z,57.66
2023-03-06T02:31:04.293Z,57.75
2023-03-06T02:33:06.765Z,57.45
2023-03-06T02:35:20.777Z,57.30
2023-03-06T02:37:25.281Z,57.86
2023-03-06T02:39:29.933Z,57.33
2023-03-06T02:41:32.091Z,57.60
2023-03-06T02:43:40.934Z,57.13
2023-03-06T02:45:46.470Z,57.36
2023-03-06T02:47:48.580Z,57.63
2023-03-06T02:49:50.575Z,57.59
2023-03-06T02:51:52.710Z,57.52
2023-03-06T02:53:54.771Z,57.52
2023-03-06T02:55:56.778Z,57.56
2023-03-06T02:57:58.900Z,58.44
2023-03-06T03:00:00.935Z,57.85
2023-03-06T03:02:03.031Z,57.98
2023-03-06T03:04:05.215Z,57.87
2023-03-06T03:06:08.046Z,58.25
2023-03-06T03:08:10.282Z,58.28
2023-03-06T03:10:13.048Z,58.31
2023-03-06T03:12:15.023Z,57.88
2023-03-06T03:14:16.949Z,58.14
2023-03-06T03:16:19.041Z,58.48
2023-03-06T03:18:21.030Z,58.83
2023-03-06T03:20:23.698Z,58.33
2023-03-06T03:22:25.837Z,58.52
2023-03-06T03:24:27.920Z,58.91
2023-03-06T03:26:29.898Z,59.15
2023-03-06T03:28:31.893Z,59.00
2023-03-06T03:30:33.872Z,58.99
2023-03-06T03:32:35.870Z,59.36
2023-03-06T03:34:38.047Z,59.41
2023-03-06T03:36:40.477Z,59.23
2023-03-06T03:38:42.470Z,58.90
2023-03-06T03:40:44.494Z,58.96
2023-03-06T03:42:46.482Z,58.76
2023-03-06T03:44:48.455Z,59.07
2023-03-06T03:46:51.227Z,58.69
2023-03-06T03:48:53.346Z,59.57
2023-03-06T03:50:55.458Z,59.27
2023-03-06T03:52:57.530Z,58.94
2023-03-06T03:54:59.722Z,59.31
2023-03-06T03:57:01.983Z,59.46
2023-03-06T03:59:03.957Z,59.31
2023-03-06T04:01:06.755Z,60.03
2023-03-06T04:03:08.723Z,59.53
2023-03-06T04:05:12.753Z,59.59
2023-03-06T04:07:15.408Z,60.18
2023-03-06T04:09:17.443Z,60.07
2023-03-06T04:11:19.592Z,59.55
2023-03-06T04:13:22.406Z,59.58
2023-03-06T04:15:24.438Z,59.68
2023-03-06T04:17:27.307Z,59.23
2023-03-06T04:19:29.284Z,59.65
2023-03-06T04:21:31.400Z,59.70
2023-03-06T04:23:33.597Z,59.48
2023-03-06T04:25:35.881Z,59.97
2023-03-06T04:27:37.924Z,60.14
2023-03-06T04:29:39.867Z,59.88
2023-03-06T04:31:41.897Z,59.73
2023-03-06T04:33:44.054Z,60.13
2023-03-06T04:35:46.084Z,59.65
2023-03-06T04:37:48.157Z,60.14
2023-03-06T04:39:50.362Z,60.88
2023-03-06T04:41:55.054Z,60.08
2023-03-06T04:43:57.664Z,60.08
2023-03-06T04:46:02.081Z,60.13
2023-03-06T04:48:06.079Z,60.45
2023-03-06T04:50:10.488Z,60.94
2023-03-06T04:52:12.701Z,60.39
2023-03-06T04:54:17.955Z,60.32
2023-03-06T04:56:21.523Z,60.90
2023-03-06T04:58:24.786Z,60.42
2023-03-06T05:00:32.518Z,60.66
2023-03-06T05:02:35.111Z,60.36
2023-03-06T05:04:39.954Z,61.13
2023-03-06T05:06:43.501Z,60.88
2023-03-06T05:08:48.919Z,61.08
2023-03-06T05:10:57.009Z,60.27
2023-03-06T05:13:00.209Z,60.15
2023-03-06T05:15:03.533Z,60.63
2023-03-06T05:17:07.059Z,60.56
2023-03-06T05:19:11.079Z,59.97
2023-03-06T05:21:13.594Z,60.05
2023-03-06T05:23:18.334Z,60.01
2023-03-06T05:25:20.884Z,60.49
2023-03-06T05:27:23.244Z,60.73
2023-03-06T05:29:26.823Z,60.80
2023-03-06T05:31:30.457Z,61.14
2023-03-06T05:33:34.941Z,61.62
2023-03-06T05:35:37.399Z,61.19
2023-03-06T05:37:40.181Z,61.77
2023-03-06T05:39:43.218Z,61.97
2023-03-06T05:41:47.821Z,62.56
2023-03-06T05:43:50.729Z,62.37
2023-03-06T05:46:02.515Z,61.66
2023-03-06T05:48:06.534Z,61.95
2023-03-06T05:50:11.103Z,63.00
2023-03-06T05:52:14.365Z,61.86
2023-03-06T05:54:17.679Z,62.06
2023-03-06T05:56:22.964Z,62.45
2023-03-06T05:58:25.207Z,62.87
2023-03-06T06:00:28.721Z,62.44
2023-03-06T06:02:32.879Z,62.31
2023-03-06T06:04:36.827Z,62.79
2023-03-06T06:06:40.127Z,62.21
2023-03-06T06:08:43.951Z,62.52
2023-03-06T06:10:47.374Z,62.66
2023-03-06T06:12:50.772Z,62.15
2023-03-06T06:14:53.752Z,62.21
2023-03-06T06:16:57.032Z,62.91
2023-03-06T06:19:01.867Z,62.48
2023-03-06T06:21:07.112Z,62.60
2023-03-06T06:23:12.690Z,63.34
2023-03-06T06:25:17.202Z,63.39
2023-03-06T06:27:21.685Z,63.08
2023-03-06T06:29:26.966Z,62.77
2023-03-06T06:31:31.036Z,63.00
2023-03-06T06:33:33.491Z,62.65
2023-03-06T06:35:38.290Z,63.51
2023-03-06T06:37:42.371Z,63.09
2023-03-06T06:39:47.402Z,62.56
2023-03-06T06:42:05.555Z,62.78
2023-03-06T06:44:15.757Z,63.02
2023-03-06T06:46:49.965Z,63.78
2023-03-06T06:48:41.750Z,64.14
2023-03-06T06:50:55.377Z,63.84
2023-03-06T06:52:59.030Z,63.77
2023-03-06T06:55:01.556Z,64.79
2023-03-06T06:57:05.155Z,64.93
2023-03-06T06:59:16.553Z,65.19
2023-03-06T07:01:28.412Z,65.21
2023-03-06T07:03:31.006Z,65.52
2023-03-06T07:05:37.931Z,65.03
2023-03-06T07:07:53.280Z,64.63
2023-03-06T07:09:55.989Z,64.46
2023-03-06T07:12:15.983Z,64.36
2023-03-06T07:14:32.271Z,64.76
2023-03-06T07:16:41.911Z,65.15
2023-03-06T07:18:50.728Z,64.88
2023-03-06T07:21:01.269Z,65.10
2023-03-06T07:23:09.602Z,65.35
2023-03-06T07:25:13.908Z,65.07
2023-03-06T07:27:37.912Z,65.49
2023-03-06T07:29:45.251Z,65.81
2023-03-06T07:31:48.857Z,65.51
2023-03-06T07:33:59.044Z,65.45
2023-03-06T07:36:07.084Z,65.82
2023-03-06T07:38:17.175Z,65.65
2023-03-06T07:40:27.305Z,65.75
2023-03-06T07:42:35.610Z,65.78
2023-03-06T07:44:42.173Z,66.55
2023-03-06T07:47:15.263Z,67.10
2023-03-06T07:49:19.415Z,66.59
2023-03-06T07:51:23.436Z,66.72
2023-03-06T07:53:31.970Z,67.54
2023-03-06T07:55:36.803Z,67.80
2023-03-06T07:57:43.364Z,67.40
2023-03-06T07:59:49.294Z,67.70
2023-03-06T08:01:56.477Z,67.51
2023-03-06T08:04:24.512Z,67.68
2023-03-06T08:06:44.138Z,67.42
2023-03-06T08:08:58.232Z,67.64
2023-03-06T08:11:19.753Z,66.93
2023-03-06T08:13:30.605Z,67.02
2023-03-06T08:15:56.899Z,67.43
2023-03-06T08:18:06.447Z,68.26
2023-03-06T08:20:10.638Z,68.48
2023-03-06T08:22:19.825Z,68.19
2023-03-06T08:24:40.574Z,68.11
2023-03-06T08:26:58.586Z,68.27
2023-03-06T08:29:09.776Z,68.29
2023-03-06T08:31:53.943Z,68.34
2023-03-06T08:34:00.008Z,68.42
2023-03-06T08:36:10.719Z,67.80
2023-03-06T08:38:26.957Z,68.07
2023-03-06T08:40:54.959Z,67.81
2023-03-06T08:46:07.454Z,67.95
2023-03-06T08:48:16.055Z,68.24
2023-03-06T08:50:21.247Z,68.10
2023-03-06T08:52:26.954Z,68.47
2023-03-06T08:54:38.162Z,68.03
2023-03-06T08:56:47.679Z,68.33
2023-03-06T08:59:00.471Z,67.82
2023-03-06T09:01:10.855Z,68.40
2023-03-06T09:03:18.480Z,68.37
2023-03-06T09:05:23.322Z,69.01
2023-03-06T09:07:30.772Z,68.80
2023-03-06T09:09:32.936Z,68.44
2023-03-06T09:11:44.159Z,68.41
2023-03-06T09:13:47.131Z,68.10
2023-03-06T09:15:52.296Z,68.07
2023-03-06T09:18:05.771Z,68.83
2023-03-06T09:20:10.830Z,68.22
2023-03-06T09:22:31.083Z,68.21
2023-03-06T09:24:35.173Z,67.54
2023-03-06T09:26:47.591Z,67.30
2023-03-06T09:28:53.734Z,66.67
2023-03-06T09:31:12.974Z,66.71
2023-03-06T09:33:15.000Z,66.81
2023-03-06T09:37:40.022Z,66.56
2023-03-06T09:40:01.395Z,66.12
2023-03-06T09:42:16.054Z,65.83
2023-03-06T09:44:34.568Z,65.87
2023-03-06T09:46:47.500Z,65.73
2023-03-06T09:49:09.122Z,65.36
2023-03-06T09:51:31.046Z,64.91
2023-03-06T09:53:46.705Z,64.96
2023-03-06T09:56:01.334Z,65.23
2023-03-06T09:58:14.495Z,65.69
2023-03-06T10:00:20.691Z,65.95
2023-03-06T10:02:26.617Z,65.41
2023-03-06T10:04:35.147Z,64.69
2023-03-06T10:06:46.440Z,65.01
2023-03-06T10:08:54.785Z,64.36
2023-03-06T10:11:02.659Z,64.61
2023-03-06T10:13:18.280Z,63.79
2023-03-06T10:15:27.381Z,63.94
2023-03-06T10:17:36.002Z,64.47
2023-03-06T10:19:40.264Z,63.93
2023-03-06T10:21:46.911Z,63.75
2023-03-06T10:23:55.018Z,63.37
2023-03-06T10:26:01.335Z,63.37
2023-03-06T10:28:13.206Z,63.13
2023-03-06T10:30:19.810Z,63.32
2023-03-06T10:32:32.158Z,63.18
2023-03-06T10:34:41.330Z,62.25
2023-03-06T10:36:43.426Z,63.06
2023-03-06T10:38:48.646Z,63.01
2023-03-06T10:40:55.293Z,62.55
2023-03-06T10:43:10.831Z,62.54
2023-03-06T10:45:15.766Z,61.85
2023-03-06T10:47:27.309Z,61.82
2023-03-06T10:49:31.506Z,62.12
2023-03-06T10:51:35.747Z,62.47
2023-03-06T10:53:50.893Z,62.07
2023-03-06T10:55:58.452Z,61.87
2023-03-06T10:58:06.900Z,61.66
2023-03-06T11:00:15.232Z,61.36
2023-03-06T11:02:25.234Z,61.98
2023-03-06T11:04:30.191Z,61.64
2023-03-06T11:06:35.813Z,61.30
2023-03-06T11:08:38.451Z,61.53
2023-03-06T11:10:40.669Z,61.21
2023-03-06T11:12:43.683Z,60.53
2023-03-06T11:14:45.971Z,60.86
2023-03-06T11:16:53.596Z,61.07
2023-03-06T11:19:00.804Z,61.16
2023-03-06T11:21:07.502Z,60.62
2023-03-06T11:23:14.016Z,61.46
2023-03-06T11:25:21.009Z,61.17
2023-03-06T11:27:34.850Z,60.66
2023-03-06T11:29:43.629Z,60.79
2023-03-06T11:31:55.110Z,60.04
2023-03-06T11:34:03.351Z,60.08
2023-03-06T11:36:11.768Z,59.92
2023-03-06T11:38:21.004Z,59.71
2023-03-06T11:40:27.684Z,60.16
2023-03-06T11:42:38.257Z,59.75
2023-03-06T11:44:47.207Z,59.81
2023-03-06T11:46:54.888Z,60.16
2023-03-06T11:49:03.220Z,60.28
2023-03-06T11:51:15.378Z,59.66
2023-03-06T11:53:23.051Z,59.50
2023-03-06T11:55:34.970Z,59.34
2023-03-06T11:57:48.385Z,58.73
2023-03-06T11:59:54.951Z,59.13
2023-03-06T12:02:03.339Z,59.01
2023-03-06T12:04:11.822Z,59.25
2023-03-06T12:06:20.170Z,58.51
2023-03-06T12:08:29.333Z,58.72
2023-03-06T12:10:38.967Z,58.82
2023-03-06T12:12:47.216Z,58.29
2023-03-06T12:14:52.776Z,57.65
2023-03-06T12:16:59.308Z,56.29
2023-03-06T12:19:22.467Z,56.39
2023-03-06T12:21:27.963Z,56.44
2023-03-06T12:23:36.327Z,56.55
2023-03-06T12:25:42.483Z,56.92
2023-03-06T12:27:51.620Z,56.72
2023-03-06T12:30:01.999Z,56.67
2023-03-06T12:32:10.443Z,55.75
2023-03-06T12:34:18.845Z,56.56
2023-03-06T12:36:31.544Z,56.08
2023-03-06T12:38:39.865Z,55.98
2023-03-06T12:40:53.504Z,55.77
2023-03-06T12:43:01.934Z,55.71
2023-03-06T12:45:05.965Z,55.34
2023-03-06T12:47:11.162Z,55.86
2023-03-06T12:49:31.439Z,55.16
2023-03-06T12:51:35.362Z,54.83
2023-03-06T12:53:40.385Z,54.31
2023-03-06T12:55:46.684Z,53.59
2023-03-06T12:57:49.692Z,52.97
2023-03-06T12:59:54.107Z,53.24
2023-03-06T13:02:05.177Z,53.04
2023-03-06T13:04:13.531Z,52.99
2023-03-06T13:06:21.876Z,52.40
2023-03-06T13:08:27.618Z,52.95
2023-03-06T13:10:33.935Z,53.05
2023-03-06T13:12:47.652Z,52.84
2023-03-06T13:14:56.754Z,52.99
2023-03-06T13:17:05.049Z,53.05
2023-03-06T13:19:12.865Z,52.72
2023-03-06T13:21:21.209Z,53.41
2023-03-06T13:23:29.493Z,53.35
2023-03-06T13:25:33.294Z,53.25
2023-03-06T13:27:41.675Z,53.84
2023-03-06T13:29:49.947Z,52.91
2023-03-06T13:31:53.867Z,53.02
2023-03-06T13:34:00.267Z,53.39
2023-03-06T13:36:08.505Z,53.32
2023-03-06T13:38:31.414Z,52.71
2023-03-06T13:40:35.668Z,52.58
2023-03-06T13:42:59.934Z,51.56
2023-03-06T13:45:08.200Z,50.88
2023-03-06T13:47:16.693Z,50.86
2023-03-06T13:49:24.384Z,51.19
2023-03-06T13:51:33.907Z,50.60
2023-03-06T13:53:40.999Z,49.97
2023-03-06T13:55:52.727Z,50.91
2023-03-06T13:58:01.277Z,51.15
2023-03-06T14:00:11.728Z,50.72
2023-03-06T14:02:20.108Z,49.60
2023-03-06T14:04:28.512Z,49.76
2023-03-06T14:06:35.088Z,49.65
2023-03-06T14:08:41.389Z,50.61
2023-03-06T14:10:45.483Z,49.65
2023-03-06T14:12:51.094Z,50.21
2023-03-06T14:14:58.202Z,50.16
2023-03-06T14:17:04.196Z,50.54
2023-03-06T14:19:16.386Z,49.71
2023-03-06T14:21:24.853Z,50.00
2023-03-06T14:23:28.822Z,50.51
2023-03-06T14:25:32.307Z,49.64
2023-03-06T14:27:39.873Z,49.57
2023-03-06T14:29:42.007Z,49.00
2023-03-06T14:31:44.205Z,49.31
2023-03-06T14:33:51.609Z,48.94
2023-03-06T14:36:03.080Z,49.14
2023-03-06T14:38:08.330Z,49.08
2023-03-06T14:40:13.170Z,49.63
2023-03-06T14:42:21.201Z,49.02
2023-03-06T14:44:26.689Z,49.90
2023-03-06T14:46:29.173Z,50.79
2023-03-06T14:48:38.804Z,50.76
2023-03-06T14:50:42.008Z,51.72
2023-03-06T14:52:44.549Z,51.91
2023-03-06T14:54:48.332Z,54.45
2023-03-06T14:56:54.520Z,56.14
2023-03-06T14:59:00.986Z,54.92
2023-03-06T15:01:07.217Z,55.88
2023-03-06T15:03:17.899Z,56.00
2023-03-06T15:05:27.048Z,57.30
2023-03-06T15:07:31.426Z,56.55
2023-03-06T15:09:36.276Z,57.25
2023-03-06T15:11:44.503Z,57.46
2023-03-06T15:14:01.310Z,57.33
2023-03-06T15:16:05.477Z,58.30
2023-03-06T15:18:13.850Z,57.81
2023-03-06T15:20:22.284Z,58.69
2023-03-06T15:22:26.542Z,57.76
2023-03-06T15:24:34.980Z,57.85
2023-03-06T15:26:38.058Z,57.48
2023-03-06T15:28:40.256Z,56.98
2023-03-06T15:30:42.665Z,56.64
2023-03-06T15:32:44.819Z,56.93
2023-03-06T15:34:47.045Z,57.34
2023-03-06T15:36:54.238Z,56.81
2023-03-06T15:38:58.548Z,57.17
2023-03-06T15:41:02.455Z,56.38
2023-03-06T15:43:10.644Z,56.13
2023-03-06T15:45:19.180Z,56.70
2023-03-06T15:47:22.111Z,56.10
2023-03-06T15:49:24.379Z,55.94
2023-03-06T15:51:26.542Z,56.56
2023-03-06T15:53:28.848Z,56.68
2023-03-06T15:55:32.724Z,56.64
2023-03-06T15:57:34.906Z,55.86
2023-03-06T15:59:44.422Z,54.69
2023-03-06T16:01:46.734Z,55.63
2023-03-06T16:03:49.165Z,56.16
2023-03-06T16:05:51.410Z,56.35
2023-03-06T16:07:54.294Z,57.32
2023-03-06T16:09:56.532Z,57.01
2023-03-06T16:11:59.876Z,57.35
2023-03-06T16:14:02.274Z,56.80
2023-03-06T16:16:04.784Z,56.44
2023-03-06T16:18:07.729Z,56.70
2023-03-06T16:20:15.808Z,58.50
2023-03-06T16:22:17.959Z,59.54
2023-03-06T16:24:20.109Z,60.23
2023-03-06T16:26:30.161Z,60.23
2023-03-06T16:28:33.110Z,60.63
2023-03-06T16:30:36.033Z,61.03
2023-03-06T16:32:39.532Z,60.52
2023-03-06T16:34:42.671Z,60.12
2023-03-06T16:36:45.003Z,60.85
2023-03-06T16:38:48.344Z,61.04
2023-03-06T16:40:50.601Z,62.08
2023-03-06T16:42:54.819Z,61.26
2023-03-06T16:44:57.387Z,61.99
2023-03-06T16:47:01.129Z,61.54
2023-03-06T16:49:03.370Z,61.50
2023-03-06T16:51:07.434Z,61.80
2023-03-06T16:53:09.771Z,61.40
2023-03-06T16:55:11.912Z,61.80
2023-03-06T16:57:15.426Z,61.67
2023-03-06T16:59:17.770Z,61.36
2023-03-06T17:01:20.442Z,61.88
2023-03-06T17:03:22.771Z,62.25
2023-03-06T17:05:25.362Z,61.63
2023-03-06T17:07:27.664Z,61.49
2023-03-06T17:09:29.859Z,61.95
2023-03-06T17:11:32.471Z,62.05
2023-03-06T17:13:34.853Z,61.17
2023-03-06T17:15:37.662Z,62.04
2023-03-06T17:17:39.887Z,61.52
2023-03-06T17:19:46.890Z,61.44
2023-03-06T17:21:49.561Z,61.93
2023-03-06T17:23:52.315Z,61.38
2023-03-06T17:26:03.428Z,61.90
2023-03-06T17:28:05.956Z,61.40
2023-03-06T17:30:10.502Z,62.28
2023-03-06T17:32:13.378Z,62.16
2023-03-06T17:34:16.513Z,62.06
2023-03-06T17:36:19.742Z,62.52
2023-03-06T17:38:22.416Z,61.68
2023-03-06T17:40:24.663Z,63.01
2023-03-06T17:42:27.130Z,63.83
2023-03-06T17:44:30.936Z,64.37
2023-03-06T17:46:35.355Z,63.76
2023-03-06T17:48:38.087Z,64.67
2023-03-06T17:50:40.553Z,64.52
2023-03-06T17:52:42.939Z,64.32
2023-03-06T17:54:45.157Z,65.02
2023-03-06T17:56:47.906Z,65.16
2023-03-06T17:58:50.418Z,64.88
2023-03-06T18:00:53.168Z,65.16
2023-03-06T18:02:55.407Z,64.47
2023-03-06T18:04:58.490Z,65.32
2023-03-06T18:07:00.815Z,65.32
2023-03-06T18:09:04.068Z,65.52
2023-03-06T18:11:08.601Z,65.09
2023-03-06T18:13:11.543Z,64.62
2023-03-06T18:15:13.935Z,63.97
2023-03-06T18:17:17.006Z,64.62
2023-03-06T18:19:19.819Z,64.81
2023-03-06T18:21:24.782Z,64.44
2023-03-06T18:23:27.049Z,64.68
2023-03-06T18:25:31.948Z,64.44
2023-03-06T18:27:35.028Z,64.36
2023-03-06T18:29:37.123Z,64.97
2023-03-06T18:31:41.949Z,65.05
2023-03-06T18:33:44.893Z,64.81
2023-03-06T18:35:47.360Z,64.76
2023-03-06T18:37:51.781Z,64.69
2023-03-06T18:39:54.515Z,65.25
2023-03-06T18:41:56.883Z,64.99
2023-03-06T18:44:01.368Z,64.93
2023-03-06T18:46:04.037Z,65.74
2023-03-06T18:48:06.770Z,65.57
2023-03-06T18:50:11.385Z,66.55
2023-03-06T18:52:13.659Z,66.31
2023-03-06T18:54:16.125Z,66.58
2023-03-06T18:56:21.433Z,66.75
2023-03-06T18:58:23.892Z,66.47
2023-03-06T19:00:26.789Z,66.36
2023-03-06T19:02:29.409Z,66.52
2023-03-06T19:04:31.707Z,66.72
2023-03-06T19:06:34.674Z,67.39
2023-03-06T19:08:38.925Z,67.25
2023-03-06T19:10:44.006Z,67.58
2023-03-06T19:12:46.883Z,68.03
2023-03-06T19:14:50.407Z,68.61
2023-03-06T19:16:54.305Z,68.47
2023-03-06T19:18:59.086Z,68.28
2023-03-06T19:21:08.528Z,68.68
2023-03-06T19:23:11.632Z,68.25
2023-03-06T19:25:14.149Z,68.24
2023-03-06T19:27:16.588Z,68.74
2023-03-06T19:29:18.778Z,69.07
2023-03-06T19:31:25.304Z,68.73
2023-03-06T19:33:27.540Z,68.93
2023-03-06T19:35:29.773Z,68.59
2023-03-06T19:37:32.364Z,68.16
2023-03-06T19:39:34.598Z,68.24
2023-03-06T19:41:36.898Z,68.76
2023-03-06T19:43:39.480Z,68.85
2023-03-06T19:45:44.303Z,69.31
2023-03-06T19:47:46.617Z,68.63
2023-03-06T19:49:49.020Z,68.46
2023-03-06T19:51:51.753Z,69.04
2023-03-06T19:53:54.422Z,68.51
2023-03-06T19:56:03.888Z,69.26
2023-03-06T19:58:06.517Z,68.56
2023-03-06T20:00:10.532Z,67.93
2023-03-06T20:02:13.244Z,68.79
2023-03-06T20:04:17.139Z,68.77
2023-03-06T20:06:20.416Z,68.68
2023-03-06T20:08:22.484Z,68.59
2023-03-06T20:10:24.751Z,68.59
2023-03-06T20:12:27.338Z,68.42
2023-03-06T20:14:29.551Z,68.40
2023-03-06T20:16:32.776Z,68.53
2023-03-06T20:18:35.106Z,68.41
2023-03-06T20:20:39.400Z,68.24
2023-03-06T20:22:41.632Z,68.66
2023-03-06T20:24:43.897Z,68.59
2023-03-06T20:26:47.539Z,69.46
2023-03-06T20:28:49.600Z,69.16
2023-03-06T20:30:51.903Z,69.53
2023-03-06T20:32:55.077Z,69.14
2023-03-06T20:34:57.240Z,69.63
2023-03-06T20:36:59.619Z,69.29
2023-03-06T20:39:06.124Z,69.39
2023-03-06T20:41:14.748Z,69.62
2023-03-06T20:43:16.850Z,70.13
2023-03-06T20:45:18.938Z,69.98
2023-03-06T20:47:21.300Z,70.20
2023-03-06T20:49:25.548Z,69.83
2023-03-06T20:51:31.943Z,70.10
2023-03-06T20:53:35.398Z,70.00
2023-03-06T20:55:39.912Z,70.75
2023-03-06T20:57:42.087Z,70.37
2023-03-06T20:59:45.495Z,69.61
2023-03-06T21:01:48.240Z,70.24
2023-03-06T21:03:51.312Z,70.73
2023-03-06T21:05:53.458Z,70.21
2023-03-06T21:07:55.575Z,69.92
2023-03-06T21:09:57.950Z,69.87
2023-03-06T21:12:00.327Z,70.65
2023-03-06T21:14:03.417Z,71.01
2023-03-06T21:16:11.125Z,70.32
2023-03-06T21:18:13.392Z,70.84
2023-03-06T21:20:15.649Z,71.07
2023-03-06T21:22:18.084Z,71.30
2023-03-06T21:24:21.325Z,70.95
2023-03-06T21:26:26.754Z,70.48
2023-03-06T21:28:28.876Z,70.70
2023-03-06T21:30:31.217Z,70.02
2023-03-06T21:32:33.594Z,70.50
2023-03-06T21:34:36.041Z,69.73
2023-03-06T21:36:38.217Z,69.72
2023-03-06T21:38:40.787Z,69.52
2023-03-06T21:40:43.040Z,69.42
2023-03-06T21:42:45.167Z,69.95
2023-03-06T21:44:47.327Z,69.94
2023-03-06T21:46:49.496Z,70.06
2023-03-06T21:48:51.991Z,69.72
2023-03-06T21:51:06.357Z,69.75
2023-03-06T21:53:09.049Z,70.38
2023-03-06T21:55:11.832Z,69.87
2023-03-06T21:57:14.106Z,69.86
2023-03-06T21:59:16.209Z,69.83
2023-03-06T22:01:22.161Z,69.67
2023-03-06T22:03:24.543Z,69.21
2023-03-06T22:05:26.827Z,69.51
2023-03-06T22:07:29.399Z,69.36
2023-03-06T22:09:31.633Z,69.65
2023-03-06T22:11:37.414Z,69.32
2023-03-06T22:13:40.157Z,69.80
2023-03-06T22:15:51.019Z,69.78
2023-03-06T22:17:53.843Z,69.47
2023-03-06T22:19:56.172Z,69.54
2023-03-06T22:21:58.353Z,69.39
2023-03-06T22:24:00.746Z,69.13
2023-03-06T22:26:05.570Z,69.20
2023-03-06T22:28:07.973Z,69.28
2023-03-06T22:30:11.038Z,69.25
2023-03-06T22:32:13.426Z,69.24
2023-03-06T22:34:15.813Z,69.74
2023-03-06T22:36:17.991Z,69.22
2023-03-06T22:38:20.099Z,69.95
2023-03-06T22:40:22.261Z,70.17
2023-03-06T22:42:24.422Z,70.05
2023-03-06T22:44:27.368Z,70.03
2023-03-06T22:46:30.307Z,69.57
2023-03-06T22:48:33.150Z,70.18
2023-03-06T22:50:35.286Z,69.82
2023-03-06T22:52:37.451Z,69.18
2023-03-06T22:54:39.552Z,69.34
2023-03-06T22:56:42.243Z,69.40
2023-03-06T22:58:45.200Z,69.80
2023-03-06T23:00:47.525Z,69.66
2023-03-06T23:02:49.657Z,70.00
2023-03-06T23:04:52.958Z,69.90
2023-03-06T23:06:55.309Z,69.72
2023-03-06T23:09:01.587Z,69.32
2023-03-06T23:11:09.096Z,69.83
2023-03-06T23:13:11.257Z,69.34
2023-03-06T23:15:13.428Z,68.85
2023-03-06T23:17:15.967Z,69.34
2023-03-06T23:19:18.167Z,68.53
2023-03-06T23:21:21.970Z,68.49
2023-03-06T23:23:24.047Z,68.62
2023-03-06T23:25:26.219Z,68.64
2023-03-06T23:27:29.558Z,68.34
2023-03-06T23:29:31.947Z,68.93
2023-03-06T23:31:34.219Z,68.71
2023-03-06T23:33:37.257Z,68.28
2023-03-06T23:35:40.153Z,68.16
2023-03-06T23:37:42.316Z,68.39
2023-03-06T23:39:44.546Z,68.10
2023-03-06T23:41:46.716Z,69.08
2023-03-06T23:43:49.851Z,68.70
2023-03-06T23:45:53.849Z,68.68
2023-03-06T23:47:56.707Z,68.56
2023-03-06T23:49:59.010Z,68.73
2023-03-06T23:52:01.058Z,68.95
2023-03-06T23:54:03.313Z,68.97
2023-03-06T23:56:07.344Z,68.49
2023-03-06T23:58:09.542Z,67.89
